Time;durP1;ratioP1;P1;durP2;ratioP2;P2;SDS_P1;SDS_P2;PMS_P1;PMS_P2;Temp;Humidity;BMP_temperature;BMP_pressure;BME280_temperature;BME280_humidity;BME280_pressure;Samples;Min_cycle;Max_cycle;Signal;HPM_P1;HPM_P2
2022/01/10 00:00:55;;;;;;;25.58;5.10;;;;;;;-145.82;100.00;61645.16;4963329;28;20423;-71
2022/01/10 00:03:22;;;;;;;18.98;5.18;;;;;;;-145.82;100.00;61645.16;4965742;28;20177;-71
2022/01/10 00:05:48;;;;;;;35.08;5.78;;;;;;;-145.82;100.00;61645.16;4964839;28;20833;-69
2022/01/10 00:08:14;;;;;;;21.27;5.43;;;;;;;-145.82;100.00;61645.16;4963451;28;20084;-71
2022/01/10 00:10:42;;;;;;;24.65;5.80;;;;;;;-145.82;100.00;61645.16;4967515;28;20072;-70
2022/01/10 00:13:07;;;;;;;19.00;5.60;;;;;;;-145.82;100.00;61645.16;4965813;28;20047;-70
2022/01/10 00:15:33;;;;;;;23.83;5.80;;;;;;;-145.82;100.00;61645.16;4963878;28;20039;-71
2022/01/10 00:17:58;;;;;;;24.48;6.55;;;;;;;-145.82;100.00;61645.16;4964833;28;20073;-69
2022/01/10 00:20:25;;;;;;;21.33;5.55;;;;;;;-145.82;100.00;61645.16;4966120;28;20104;-72
2022/01/10 00:22:51;;;;;;;27.88;5.50;;;;;;;-145.82;100.00;61645.16;4964732;28;20804;-70
2022/01/10 00:25:22;;;;;;;18.20;4.95;;;;;;;-145.82;100.00;61645.16;4965848;28;20049;-70
2022/01/10 00:27:49;;;;;;;24.40;5.15;;;;;;;-145.82;100.00;61645.16;4960410;28;20049;-70
2022/01/10 00:30:16;;;;;;;26.25;6.35;;;;;;;-145.82;100.00;61645.16;4961523;28;20544;-71
2022/01/10 00:32:44;;;;;;;25.70;5.97;;;;;;;-145.82;100.00;61645.16;4961344;28;20372;-70
2022/01/10 00:35:11;;;;;;;14.82;5.45;;;;;;;-145.82;100.00;61645.16;4962399;28;20049;-72
2022/01/10 00:37:39;;;;;;;28.30;5.60;;;;;;;-145.82;100.00;61645.16;4960319;28;20035;-70
2022/01/10 00:40:06;;;;;;;22.58;5.80;;;;;;;-145.82;100.00;61645.16;4962267;28;20094;-70
2022/01/10 00:42:32;;;;;;;28.30;5.72;;;;;;;-145.82;100.00;61645.16;4963382;28;20098;-71
2022/01/10 00:45:01;;;;;;;24.42;5.80;;;;;;;-145.82;100.00;61645.16;4962819;28;20121;-70
2022/01/10 00:47:29;;;;;;;;;;;;;;;-145.82;100.00;61645.16;4976602;28;20054;-71
2022/01/10 00:49:54;;;;;;;28.23;5.88;;;;;;;-145.82;100.00;61645.16;4978356;28;19968;-70
2022/01/10 00:52:21;;;;;;;21.98;5.70;;;;;;;-145.82;100.00;61645.16;4961513;28;20129;-70
2022/01/10 00:54:47;;;;;;;21.42;5.22;;;;;;;-145.82;100.00;61645.16;4978146;28;21059;-71
2022/01/10 00:57:13;;;;;;;23.10;4.68;;;;;;;-145.82;100.00;61645.16;4962022;28;20042;-70
2022/01/10 00:59:38;;;;;;;22.08;5.55;;;;;;;-145.82;100.00;61645.16;4966437;28;20090;-70
2022/01/10 01:02:04;;;;;;;20.65;5.47;;;;;;;-145.82;100.00;61645.16;4964861;28;20475;-72
2022/01/10 01:04:29;;;;;;;17.00;4.72;;;;;;;-145.82;100.00;61645.16;4982208;28;20047;-70
2022/01/10 01:06:55;;;;;;;14.77;4.95;;;;;;;-145.82;100.00;61645.16;4965581;28;20097;-71
2022/01/10 01:09:26;;;;;;;23.40;4.85;;;;;;;-145.82;100.00;61645.16;4966443;28;20042;-70
2022/01/10 01:12:11;;;;;;;25.40;5.35;;;;;;;-145.82;100.00;61645.16;4966078;28;20390;-70
2022/01/10 01:14:50;;;;;;;29.00;6.32;;;;;;;-145.82;100.00;61645.16;4966199;28;20054;-71
2022/01/10 01:25:07;;;;;;;26.58;5.57;;;;;;;-145.82;100.00;61645.16;4965306;28;20053;-70
2022/01/10 01:27:33;;;;;;;16.77;5.07;;;;;;;-145.82;100.00;61645.16;4963897;28;20105;-70
2022/01/10 01:29:58;;;;;;;16.05;5.18;;;;;;;-145.82;100.00;61645.16;4967656;28;20565;-70
2022/01/10 01:32:24;;;;;;;27.42;5.90;;;;;;;-145.82;100.00;61645.16;4967669;28;20348;-71
2022/01/10 01:34:50;;;;;;;28.92;5.72;;;;;;;-145.82;100.00;61645.16;4968970;28;20043;-71
2022/01/10 01:37:16;;;;;;;18.83;5.70;;;;;;;-145.82;100.00;61645.16;4966163;28;20136;-70
2022/01/10 01:39:41;;;;;;;17.67;5.35;;;;;;;-145.82;100.00;61645.16;4980712;28;20045;-71
2022/01/10 01:42:30;;;;;;;27.52;6.22;;;;;;;-145.82;100.00;61645.16;4964866;28;20034;-71
2022/01/10 01:44:53;;;;;;;16.40;5.68;;;;;;;-145.82;100.00;61645.16;4965394;28;20805;-70
2022/01/10 01:47:19;;;;;;;21.60;6.35;;;;;;;-145.82;100.00;61645.16;4965610;28;20038;-70
2022/01/10 01:49:45;;;;;;;23.85;6.35;;;;;;;-145.82;100.00;61645.16;4980443;28;20038;-70
2022/01/10 01:52:11;;;;;;;28.02;6.90;;;;;;;-145.82;100.00;61645.16;4978328;28;20031;-70
2022/01/10 01:54:36;;;;;;;18.98;5.25;;;;;;;-145.82;100.00;61645.16;4980075;28;20114;-71
2022/01/10 01:57:02;;;;;;;27.00;6.18;;;;;;;-145.82;100.00;61645.16;4964267;28;20046;-71
2022/01/10 01:59:28;;;;;;;23.50;6.60;;;;;;;-145.82;100.00;61645.16;4980291;28;20035;-71
2022/01/10 02:01:54;;;;;;;23.20;6.90;;;;;;;-145.82;100.00;61645.16;4980766;28;20101;-71
2022/01/10 02:04:22;;;;;;;25.65;6.68;;;;;;;-145.82;100.00;61645.16;4980710;28;20046;-72
2022/01/10 02:06:52;;;;;;;27.75;6.25;;;;;;;-145.82;100.00;61645.16;4978318;28;20040;-73
2022/01/10 02:09:18;;;;;;;25.27;6.70;;;;;;;-145.82;100.00;61645.16;4964853;28;20560;-71
2022/01/10 02:11:48;;;;;;;21.05;6.50;;;;;;;-145.82;100.00;61645.16;4979405;28;20097;-71
2022/01/10 02:14:16;;;;;;;19.42;5.72;;;;;;;-145.82;100.00;61645.16;4979792;28;20772;-72
2022/01/10 02:16:51;;;;;;;29.48;7.22;;;;;;;-145.82;100.00;61645.16;4979633;28;20039;-71
2022/01/10 02:19:27;;;;;;;16.98;5.70;;;;;;;-145.82;100.00;61645.16;4979164;28;20824;-71
2022/01/10 02:21:53;;;;;;;25.17;6.55;;;;;;;-145.82;100.00;61645.16;4978762;28;20027;-73
2022/01/10 02:24:20;;;;;;;26.00;6.95;;;;;;;-145.82;100.00;61645.16;4978779;28;20038;-71
2022/01/10 02:26:50;;;;;;;18.58;6.38;;;;;;;-145.82;100.00;61645.16;4978090;28;20482;-73
2022/01/10 02:29:17;;;;;;;21.48;7.03;;;;;;;-145.82;100.00;61645.16;4979240;28;20077;-72
2022/01/10 02:31:43;;;;;;;22.10;6.82;;;;;;;-145.82;100.00;61645.16;4964104;28;20038;-71
2022/01/10 02:34:09;;;;;;;23.35;7.15;;;;;;;-145.82;100.00;61645.16;4978579;28;20049;-71
2022/01/10 02:36:36;;;;;;;33.65;7.40;;;;;;;-145.82;100.00;61645.16;4978777;28;20052;-71
2022/01/10 02:39:09;;;;;;;22.80;7.10;;;;;;;-145.82;100.00;61645.16;4963737;28;20031;-72
2022/01/10 02:41:42;;;;;;;27.58;6.95;;;;;;;-145.82;100.00;61645.16;4979480;28;20039;-72
2022/01/10 02:44:11;;;;;;;20.67;6.60;;;;;;;-145.82;100.00;61645.16;4979600;28;20038;-73
2022/01/10 02:46:38;;;;;;;22.27;6.68;;;;;;;-145.82;100.00;61645.16;4979009;28;20030;-71
2022/01/10 02:49:16;;;;;;;19.88;6.47;;;;;;;-145.82;100.00;61645.16;4963535;28;20051;-71
2022/01/10 02:51:43;;;;;;;29.88;7.60;;;;;;;-145.82;100.00;61645.16;4979148;28;20504;-72
2022/01/10 02:54:09;;;;;;;20.83;7.88;;;;;;;-145.82;100.00;61645.16;4979035;28;20062;-72
2022/01/10 02:56:48;;;;;;;40.28;8.45;;;;;;;-145.82;100.00;61645.16;4963725;28;20138;-71
2022/01/10 02:59:14;;;;;;;21.88;8.18;;;;;;;-145.82;100.00;61645.16;4978287;28;20031;-73
2022/01/10 03:01:41;;;;;;;21.80;8.10;;;;;;;-145.82;100.00;61645.16;4979013;28;20039;-72
2022/01/10 03:04:07;;;;;;;30.92;8.55;;;;;;;-145.82;100.00;61645.16;4978176;28;20053;-71
2022/01/10 03:06:33;;;;;;;18.75;7.47;;;;;;;-145.82;100.00;61645.16;4978026;28;20085;-71
2022/01/10 03:09:05;;;;;;;28.23;8.52;;;;;;;-145.82;100.00;61645.16;4979422;28;20760;-73
2022/01/10 03:11:36;;;;;;;26.35;8.25;;;;;;;-145.82;100.00;61645.16;4978312;28;20066;-73
2022/01/10 03:14:03;;;;;;;27.00;7.97;;;;;;;-145.82;100.00;61645.16;4978515;28;20531;-71
2022/01/10 03:16:28;;;;;;;19.98;7.32;;;;;;;-145.82;100.00;61645.16;4979243;28;20127;-73
2022/01/10 03:18:54;;;;;;;37.03;8.40;;;;;;;-145.82;100.00;61645.16;4962094;28;20121;-71
2022/01/10 03:21:20;;;;;;;24.48;7.38;;;;;;;-145.82;100.00;61645.16;4978228;28;20049;-72
2022/01/10 03:23:48;;;;;;;32.42;7.72;;;;;;;-145.82;100.00;61645.16;4962427;28;20126;-72
2022/01/10 03:26:15;;;;;;;32.08;6.82;;;;;;;-145.82;100.00;61645.16;4977104;28;20620;-71
2022/01/10 03:28:41;;;;;;;24.83;7.97;;;;;;;-145.82;100.00;61645.16;4961928;28;20074;-71
2022/01/10 03:31:08;;;;;;;22.55;8.20;;;;;;;-145.82;100.00;61645.16;4977197;28;20078;-71
2022/01/10 03:33:34;;;;;;;21.25;7.75;;;;;;;-145.82;100.00;61645.16;4979624;28;20066;-72
2022/01/10 03:36:00;;;;;;;26.58;7.85;;;;;;;-145.82;100.00;61645.16;4963383;28;20070;-70
2022/01/10 03:38:25;;;;;;;20.73;7.50;;;;;;;-145.82;100.00;61645.16;4961063;28;20063;-71
2022/01/10 03:40:51;;;;;;;31.73;9.48;;;;;;;-145.82;100.00;61645.16;4977303;28;20035;-72
2022/01/10 03:43:21;;;;;;;27.77;8.43;;;;;;;-145.82;100.00;61645.16;4976936;28;20045;-72
2022/01/10 03:45:46;;;;;;;23.85;7.82;;;;;;;-145.82;100.00;61645.16;4964194;28;20042;-71
2022/01/10 03:48:14;;;;;;;26.98;8.95;;;;;;;-145.82;100.00;61645.16;4975309;28;20051;-72
2022/01/10 03:50:39;;;;;;;19.38;7.65;;;;;;;-145.82;100.00;61645.16;4978642;28;20093;-71
2022/01/10 03:53:05;;;;;;;25.70;7.95;;;;;;;-145.82;100.00;61645.16;4977795;28;20047;-71
2022/01/10 03:55:32;;;;;;;34.20;7.38;;;;;;;-145.82;100.00;61645.16;4964224;28;20034;-71
2022/01/10 03:58:00;;;;;;;21.17;6.20;;;;;;;-145.82;100.00;61645.16;4975678;28;20058;-71
2022/01/10 04:00:25;;;;;;;21.65;7.32;;;;;;;-145.82;100.00;61645.16;4976926;28;20047;-71
2022/01/10 04:02:57;;;;;;;18.45;5.65;;;;;;;-145.82;100.00;61645.16;4964170;28;20560;-72
2022/01/10 04:05:27;;;;;;;24.15;5.82;;;;;;;-145.82;100.00;61645.16;4976996;28;20045;-71
2022/01/10 04:07:53;;;;;;;19.65;6.55;;;;;;;-145.82;100.00;61645.16;4975474;28;20031;-71
2022/01/10 04:10:19;;;;;;;36.45;7.35;;;;;;;-145.82;100.00;61645.16;4978628;28;20035;-71
2022/01/10 04:12:44;;;;;;;20.92;6.78;;;;;;;-145.82;100.00;61645.16;4976696;28;20675;-71
2022/01/10 04:15:10;;;;;;;23.95;7.35;;;;;;;-145.82;100.00;61645.16;4977491;28;20411;-71
2022/01/10 04:17:37;;;;;;;23.77;6.95;;;;;;;-145.82;100.00;61645.16;4978146;28;20466;-73
2022/01/10 04:20:05;;;;;;;28.67;7.60;;;;;;;-145.82;100.00;61645.16;4960336;28;20050;-70
2022/01/10 04:22:31;;;;;;;28.45;7.78;;;;;;;-145.82;100.00;61645.16;4962335;28;20419;-73
2022/01/10 04:24:56;;;;;;;23.65;8.20;;;;;;;-145.82;100.00;61645.16;4962012;28;20045;-71
2022/01/10 04:27:22;;;;;;;23.92;7.03;;;;;;;-145.82;100.00;61645.16;4976824;28;20382;-72
2022/01/10 04:29:48;;;;;;;23.05;6.75;;;;;;;-145.82;100.00;61645.16;4963503;28;20109;-71
2022/01/10 04:32:14;;;;;;;23.23;7.10;;;;;;;-145.82;100.00;61645.16;4962467;28;20042;-71
2022/01/10 04:34:40;;;;;;;28.48;7.90;;;;;;;-145.82;100.00;61645.16;4961191;28;20049;-72
2022/01/10 04:37:07;;;;;;;21.08;7.88;;;;;;;-145.82;100.00;61645.16;4959312;28;20043;-71
2022/01/10 04:39:33;;;;;;;27.63;8.27;;;;;;;-145.82;100.00;61645.16;4978066;28;20213;-72
2022/01/10 04:42:00;;;;;;;32.13;8.45;;;;;;;-145.82;100.00;61645.16;4960240;28;20049;-71
2022/01/10 04:44:26;;;;;;;30.48;8.10;;;;;;;-145.82;100.00;61645.16;4978988;28;20090;-71
2022/01/10 04:46:52;;;;;;;35.85;8.90;;;;;;;-145.82;100.00;61645.16;4976863;28;20088;-71
2022/01/10 04:49:24;;;;;;;24.15;7.60;;;;;;;-145.82;100.00;61645.16;4977775;28;20039;-71
2022/01/10 04:51:50;;;;;;;23.02;9.30;;;;;;;-145.82;100.00;61645.16;4977354;28;20045;-72
2022/01/10 04:54:17;;;;;;;43.45;9.57;;;;;;;-145.82;100.00;61645.16;4962690;28;20287;-72
2022/01/10 04:56:44;;;;;;;27.20;8.48;;;;;;;-145.82;100.00;61645.16;4976618;28;20085;-72
2022/01/10 04:59:10;;;;;;;25.40;7.90;;;;;;;-145.82;100.00;61645.16;4961459;28;20046;-72
2022/01/10 05:01:36;;;;;;;29.95;7.65;;;;;;;-145.82;100.00;61645.16;4964596;28;20367;-71
2022/01/10 05:04:01;;;;;;;36.55;7.57;;;;;;;-145.82;100.00;61645.16;4963284;28;20460;-71
2022/01/10 05:06:27;;;;;;;31.70;8.52;;;;;;;-145.82;100.00;61645.16;4964278;28;20050;-71
2022/01/10 05:08:53;;;;;;;23.00;6.90;;;;;;;-145.82;100.00;61645.16;4961037;28;20054;-71
2022/01/10 05:11:39;;;;;;;29.90;7.70;;;;;;;-145.82;100.00;61645.16;4960104;28;20442;-72
2022/01/10 05:14:05;;;;;;;22.63;6.80;;;;;;;-145.82;100.00;61645.16;4977005;28;20057;-72
2022/01/10 05:16:31;;;;;;;26.45;8.32;;;;;;;-145.82;100.00;61645.16;4976219;28;20150;-72
2022/01/10 05:18:56;;;;;;;33.40;8.38;;;;;;;-145.82;100.00;61645.16;4977230;28;20031;-72
2022/01/10 05:21:22;;;;;;;23.10;8.07;;;;;;;-145.82;100.00;61645.16;4976277;28;20093;-71
2022/01/10 05:23:48;;;;;;;30.15;8.45;;;;;;;-145.82;100.00;61645.16;4977296;28;20050;-71
2022/01/10 05:26:13;;;;;;;25.33;8.48;;;;;;;-145.82;100.00;61645.16;4975850;28;20060;-71
2022/01/10 05:28:40;;;;;;;36.90;8.23;;;;;;;-145.82;100.00;61645.16;4962344;28;20089;-73
2022/01/10 05:31:06;;;;;;;25.42;8.93;;;;;;;-145.82;100.00;61645.16;4976174;28;20039;-71
2022/01/10 05:33:42;;;;;;;23.73;7.95;;;;;;;-145.82;100.00;61645.16;4979995;28;20039;-71
2022/01/10 05:36:07;;;;;;;35.30;9.27;;;;;;;-145.82;100.00;61645.16;4962222;28;20050;-72
2022/01/10 05:38:33;;;;;;;33.60;10.07;;;;;;;-145.82;100.00;61645.16;4960228;28;20148;-71
2022/01/10 05:40:59;;;;;;;28.08;9.38;;;;;;;-145.82;100.00;61645.16;4960694;28;20073;-72
2022/01/10 05:43:25;;;;;;;34.38;10.23;;;;;;;-145.82;100.00;61645.16;4977098;28;20039;-73
2022/01/10 05:45:53;;;;;;;33.35;9.52;;;;;;;-145.82;100.00;61645.16;4964575;28;20244;-73
2022/01/10 05:48:25;;;;;;;39.97;10.95;;;;;;;-145.82;100.00;61645.16;4979897;28;20042;-71
2022/01/10 05:50:53;;;;;;;36.45;12.27;;;;;;;-145.82;100.00;61645.16;4979151;28;20081;-71
2022/01/10 05:53:20;;;;;;;41.08;11.90;;;;;;;-145.82;100.00;61645.16;4966501;28;20047;-72
2022/01/10 05:55:47;;;;;;;39.38;10.20;;;;;;;-145.82;100.00;61645.16;4979805;28;20375;-71
2022/01/10 05:58:15;;;;;;;33.13;10.93;;;;;;;-145.82;100.00;61645.16;4977890;28;20062;-71
2022/01/10 06:00:41;;;;;;;48.17;13.75;;;;;;;-145.82;100.00;61645.16;4979332;28;20054;-71
2022/01/10 06:03:07;;;;;;;70.18;12.20;;;;;;;-145.82;100.00;61645.16;4965770;28;20129;-71
2022/01/10 06:05:39;;;;;;;32.58;11.52;;;;;;;-145.82;100.00;61645.16;4979986;28;20386;-70
2022/01/10 06:08:08;;;;;;;56.45;13.27;;;;;;;-145.82;100.00;61645.16;4977703;28;20039;-70
2022/01/10 06:10:36;;;;;;;35.83;13.45;;;;;;;-145.82;100.00;61645.16;4980076;28;20038;-70
2022/01/10 06:13:14;;;;;;;46.95;13.70;;;;;;;-145.82;100.00;61645.16;4962583;28;20043;-72
2022/01/10 06:15:41;;;;;;;40.13;13.10;;;;;;;-145.82;100.00;61645.16;4964161;28;20438;-73
2022/01/10 06:18:07;;;;;;;35.03;12.00;;;;;;;-145.82;100.00;61645.16;4977970;28;20039;-72
2022/01/10 06:20:33;;;;;;;49.63;12.88;;;;;;;-145.82;100.00;61645.16;4966043;28;20068;-70
2022/01/10 06:22:59;;;;;;;48.40;12.73;;;;;;;-145.82;100.00;61645.16;4977588;28;20501;-70
2022/01/10 06:25:26;;;;;;;53.72;13.73;;;;;;;-145.82;100.00;61645.16;4979511;28;20053;-70
2022/01/10 06:27:53;;;;;;;34.05;11.98;;;;;;;-145.82;100.00;61645.16;4963630;28;20062;-70
2022/01/10 06:30:19;;;;;;;48.72;13.60;;;;;;;-145.82;100.00;61645.16;4980523;28;20585;-70
2022/01/10 06:32:46;;;;;;;37.95;13.57;;;;;;;-145.82;100.00;61645.16;4979433;28;20105;-71
2022/01/10 06:35:15;;;;;;;39.97;13.07;;;;;;;-145.82;100.00;61645.16;4963473;28;20494;-70
2022/01/10 06:37:42;;;;;;;47.95;13.82;;;;;;;-145.82;100.00;61645.16;4977710;28;20106;-70
2022/01/10 06:40:10;;;;;;;54.60;15.82;;;;;;;-145.82;100.00;61645.16;4978738;28;20492;-71
2022/01/10 06:42:40;;;;;;;;;;;;;;;-145.82;100.00;61645.16;4980149;28;20034;-71
2022/01/10 06:45:07;;;;;;;73.57;18.45;;;;;;;-145.82;100.00;61645.16;4979544;28;19977;-72
2022/01/10 06:47:33;;;;;;;76.78;19.23;;;;;;;-145.82;100.00;61645.16;4978098;28;20377;-71
2022/01/10 06:49:59;;;;;;;62.95;18.73;;;;;;;-145.82;100.00;61645.16;4978910;28;20043;-73
2022/01/10 06:52:25;;;;;;;90.30;20.38;;;;;;;-145.82;100.00;61645.16;4978075;28;20047;-71
2022/01/10 06:54:53;;;;;;;77.00;21.27;;;;;;;-145.82;100.00;61645.16;4976717;28;20034;-72
2022/01/10 06:57:19;;;;;;;84.47;20.80;;;;;;;-145.82;100.00;61645.16;4978161;28;20054;-70
2022/01/10 06:59:45;;;;;;;78.50;21.88;;;;;;;-145.82;100.00;61645.16;4980307;28;20038;-70
2022/01/10 07:02:11;;;;;;;70.45;18.77;;;;;;;-145.82;100.00;61645.16;4961880;28;20681;-70
2022/01/10 07:04:37;;;;;;;68.75;18.95;;;;;;;-145.82;100.00;61645.16;4979812;28;20038;-70
2022/01/10 07:07:05;;;;;;;66.65;17.90;;;;;;;-145.82;100.00;61645.16;4962428;28;20035;-71
2022/01/10 07:09:34;;;;;;;84.28;19.77;;;;;;;-145.82;100.00;61645.16;4962917;28;20089;-70
2022/01/10 07:12:08;;;;;;;74.53;19.02;;;;;;;-145.82;100.00;61645.16;4977882;28;20488;-70
2022/01/10 07:14:42;;;;;;;80.65;18.50;;;;;;;-145.82;100.00;61645.16;4965680;28;20046;-70
2022/01/10 07:17:10;;;;;;;67.78;18.02;;;;;;;-145.82;100.00;61645.16;4977748;28;20038;-70
2022/01/10 07:19:36;;;;;;;60.38;16.30;;;;;;;-145.82;100.00;61645.16;4962808;28;20349;-70
2022/01/10 07:22:03;;;;;;;61.08;15.40;;;;;;;-145.82;100.00;61645.16;4975537;28;20046;-70
2022/01/10 07:24:29;;;;;;;65.55;18.92;;;;;;;-145.82;100.00;61645.16;4961518;28;20038;-73
2022/01/10 07:26:54;;;;;;;56.45;16.35;;;;;;;-145.82;100.00;61645.16;4960823;28;20393;-72
2022/01/10 07:29:20;;;;;;;82.20;16.83;;;;;;;-145.82;100.00;61645.16;4962638;28;20046;-70
2022/01/10 07:31:45;;;;;;;83.25;19.08;;;;;;;-145.82;100.00;61645.16;4961493;28;20133;-73
2022/01/10 07:34:14;;;;;;;69.00;17.50;;;;;;;-145.82;100.00;61645.16;4962077;28;20153;-72
2022/01/10 07:36:40;;;;;;;79.38;17.90;;;;;;;-145.82;100.00;61645.16;4962683;28;20121;-71
2022/01/10 07:39:06;;;;;;;147.43;27.95;;;;;;;-145.82;100.00;61645.16;4961972;28;20317;-70
2022/01/10 07:41:32;;;;;;;140.82;18.58;;;;;;;-145.82;100.00;61645.16;4963445;28;20039;-71
2022/01/10 07:43:59;;;;;;;62.88;16.70;;;;;;;-145.82;100.00;61645.16;4960850;28;20610;-72
2022/01/10 07:46:25;;;;;;;54.92;16.98;;;;;;;-145.82;100.00;61645.16;4961783;28;20474;-71
2022/01/10 07:48:52;;;;;;;54.92;16.50;;;;;;;-145.82;100.00;61645.16;4963088;28;20120;-70
2022/01/10 07:51:19;;;;;;;63.35;16.75;;;;;;;-145.82;100.00;61645.16;4962890;28;20042;-70
2022/01/10 07:53:45;;;;;;;53.90;17.15;;;;;;;-145.82;100.00;61645.16;4962510;28;20043;-71
2022/01/10 07:56:10;;;;;;;56.20;15.13;;;;;;;-145.82;100.00;61645.16;4965507;28;20541;-70
2022/01/10 07:58:37;;;;;;;78.60;18.23;;;;;;;-145.82;100.00;61645.16;4961863;28;20031;-70
2022/01/10 08:01:03;;;;;;;42.83;15.25;;;;;;;-145.82;100.00;61645.16;4963115;28;20074;-71
2022/01/10 08:03:28;;;;;;;53.00;15.93;;;;;;;-145.82;100.00;61645.16;4967924;28;20030;-71
2022/01/10 08:05:54;;;;;;;49.58;15.00;;;;;;;-145.82;100.00;61645.16;4962746;28;20049;-71
2022/01/10 08:08:20;;;;;;;41.67;12.27;;;;;;;-145.82;100.00;61645.16;4963735;28;20034;-72
2022/01/10 08:10:45;;;;;;;40.28;13.38;;;;;;;-145.82;100.00;61645.16;4964907;28;20043;-72
2022/01/10 08:13:11;;;;;;;45.38;14.50;;;;;;;-145.82;100.00;61645.16;4962071;28;20064;-71
2022/01/10 08:15:36;;;;;;;46.10;14.15;;;;;;;-145.82;100.00;61645.16;4963466;28;20058;-71
2022/01/10 08:18:05;;;;;;;54.83;15.63;;;;;;;-145.82;100.00;61645.16;4962315;28;20510;-71
2022/01/10 08:20:31;;;;;;;60.17;13.70;;;;;;;-145.82;100.00;61645.16;4964363;28;20344;-71
2022/01/10 08:22:56;;;;;;;38.05;14.55;;;;;;;-145.82;100.00;61645.16;4962947;28;20514;-70
2022/01/10 08:25:22;;;;;;;43.58;13.57;;;;;;;-145.82;100.00;61645.16;4966372;28;20042;-71
2022/01/10 08:27:47;;;;;;;48.70;14.13;;;;;;;-145.82;100.00;61645.16;4979956;28;20046;-69
2022/01/10 08:30:13;;;;;;;33.53;12.35;;;;;;;-145.82;100.00;61645.16;4962210;28;20146;-70
2022/01/10 08:32:39;;;;;;;40.28;13.07;;;;;;;-145.82;100.00;61645.16;4964225;28;20316;-72
2022/01/10 08:35:05;;;;;;;36.22;12.98;;;;;;;-145.82;100.00;61645.16;4962388;28;20046;-70
2022/01/10 08:37:31;;;;;;;41.45;12.50;;;;;;;-145.82;100.00;61645.16;4963408;28;20094;-70
2022/01/10 08:39:57;;;;;;;40.60;14.63;;;;;;;-145.82;100.00;61645.16;4962945;28;20122;-71
2022/01/10 08:42:24;;;;;;;47.08;14.05;;;;;;;-145.82;100.00;61645.16;4962536;28;20093;-71
2022/01/10 08:44:50;;;;;;;49.47;13.38;;;;;;;-145.82;100.00;61645.16;4964075;28;20089;-70
2022/01/10 08:47:16;;;;;;;43.53;11.45;;;;;;;-145.82;100.00;61645.16;4962058;28;20047;-70
2022/01/10 08:49:42;;;;;;;32.17;10.55;;;;;;;-145.82;100.00;61645.16;4966213;28;20097;-70
2022/01/10 08:52:08;;;;;;;35.28;12.82;;;;;;;-145.82;100.00;61645.16;4963449;28;20051;-70
2022/01/10 08:54:34;;;;;;;51.00;11.98;;;;;;;-145.82;100.00;61645.16;4958379;28;20109;-71
2022/01/10 08:57:01;;;;;;;41.47;12.35;;;;;;;-145.82;100.00;61645.16;4960751;28;20425;-71
2022/01/10 08:59:29;;;;;;;36.45;12.52;;;;;;;-145.82;100.00;61645.16;4961987;28;20041;-72
2022/01/10 09:01:58;;;;;;;66.07;14.55;;;;;;;-145.82;100.00;61645.16;4962221;28;20039;-71
2022/01/10 09:04:24;;;;;;;43.03;11.25;;;;;;;-145.82;100.00;61645.16;4963022;28;20050;-70
2022/01/10 09:06:52;;;;;;;41.67;12.77;;;;;;;-145.82;100.00;61645.16;4962345;28;20690;-71
2022/01/10 09:09:19;;;;;;;38.53;11.05;;;;;;;-145.82;100.00;61645.16;4962604;28;20073;-70
2022/01/10 09:11:45;;;;;;;32.78;11.15;;;;;;;-145.82;100.00;61645.16;4962643;28;20035;-72
2022/01/10 09:14:13;;;;;;;22.75;8.75;;;;;;;-145.82;100.00;61645.16;4963148;28;20031;-72
2022/01/10 09:16:39;;;;;;;35.92;9.85;;;;;;;-145.82;100.00;61645.16;4961845;28;20558;-70
2022/01/10 09:19:05;;;;;;;34.70;10.43;;;;;;;-145.82;100.00;61645.16;4980332;28;20066;-70
2022/01/10 09:21:31;;;;;;;33.30;11.27;;;;;;;-145.82;100.00;61645.16;4966220;28;20181;-70
2022/01/10 09:23:56;;;;;;;39.95;10.60;;;;;;;-145.82;100.00;61645.16;4965970;28;20378;-70
2022/01/10 09:26:23;;;;;;;32.20;10.43;;;;;;;-145.82;100.00;61645.16;4964141;28;20271;-72
2022/01/10 09:28:48;;;;;;;33.03;10.15;;;;;;;-145.82;100.00;61645.16;4964804;28;20792;-70
2022/01/10 09:31:14;;;;;;;39.65;12.27;;;;;;;-145.82;100.00;61645.16;4961492;28;20063;-72
2022/01/10 09:33:41;;;;;;;30.88;10.20;;;;;;;-145.82;100.00;61645.16;4959100;28;20047;-70
2022/01/10 09:36:07;;;;;;;28.60;8.80;;;;;;;-145.82;100.00;61645.16;4965290;28;20108;-70
2022/01/10 09:38:33;;;;;;;26.60;9.02;;;;;;;-145.82;100.00;61645.16;4960979;28;20062;-70
2022/01/10 09:40:59;;;;;;;28.55;10.77;;;;;;;-145.82;100.00;61645.16;4962700;28;20043;-70
2022/01/10 09:43:25;;;;;;;39.05;11.52;;;;;;;-145.82;100.00;61645.16;4972667;28;20043;-70
2022/01/10 09:45:51;;;;;;;44.75;12.68;;;;;;;-145.82;100.00;61645.16;4964966;28;20046;-70
2022/01/10 09:48:17;;;;;;;46.22;11.40;;;;;;;-145.82;100.00;61645.16;4963934;28;20049;-72
2022/01/10 09:50:43;;;;;;;30.50;9.73;;;;;;;-145.82;100.00;61645.16;4964888;28;20042;-70
2022/01/10 09:53:10;;;;;;;31.10;10.32;;;;;;;-145.82;100.00;61645.16;4963667;28;20097;-70
2022/01/10 09:55:36;;;;;;;31.17;10.85;;;;;;;-145.82;100.00;61645.16;4966093;28;20078;-70
2022/01/10 09:58:03;;;;;;;34.38;9.70;;;;;;;-145.82;100.00;61645.16;4965349;28;20047;-71
2022/01/10 10:00:30;;;;;;;27.35;8.68;;;;;;;-145.82;100.00;61645.16;4964347;28;20371;-70
2022/01/10 10:02:56;;;;;;;26.20;9.10;;;;;;;-145.82;100.00;61645.16;4963214;28;20046;-72
2022/01/10 10:05:21;;;;;;;31.95;10.02;;;;;;;-145.82;100.00;61645.16;4968717;28;20049;-70
2022/01/10 10:07:48;;;;;;;24.15;9.48;;;;;;;-145.82;100.00;61645.16;4965350;28;20039;-71
2022/01/10 10:10:15;;;;;;;34.47;8.95;;;;;;;-145.82;100.00;61645.16;4965079;28;20112;-70
2022/01/10 10:12:48;;;;;;;44.67;9.63;;;;;;;-145.82;100.00;61645.16;4963246;28;20169;-70
2022/01/10 10:15:17;;;;;;;31.65;10.77;;;;;;;-145.82;100.00;61645.16;4966993;28;20330;-70
2022/01/10 10:17:44;;;;;;;26.83;9.73;;;;;;;-145.82;100.00;61645.16;4965422;28;20541;-70
2022/01/10 10:20:22;;;;;;;28.63;9.88;;;;;;;-145.82;100.00;61645.16;4963789;28;20038;-70
2022/01/10 10:22:51;;;;;;;37.00;9.43;;;;;;;-145.82;100.00;61645.16;4965254;28;20090;-70
2022/01/10 10:25:17;;;;;;;37.45;13.27;;;;;;;-145.82;100.00;61645.16;4966524;28;20431;-70
2022/01/10 10:27:46;;;;;;;26.88;10.07;;;;;;;-145.82;100.00;61645.16;4965593;28;20042;-70
2022/01/10 10:30:15;;;;;;;32.75;9.40;;;;;;;-145.82;100.00;61645.16;4962693;28;20059;-70
2022/01/10 10:32:40;;;;;;;29.83;10.25;;;;;;;-145.82;100.00;61645.16;4967956;28;20039;-71
2022/01/10 10:35:08;;;;;;;23.65;9.77;;;;;;;-145.82;100.00;61645.16;4965599;28;20405;-70
2022/01/10 10:37:39;;;;;;;32.63;10.32;;;;;;;-145.82;100.00;61645.16;4979120;28;20063;-70
2022/01/10 10:40:09;;;;;;;27.33;9.47;;;;;;;-145.82;100.00;61645.16;4966274;28;20101;-70
2022/01/10 10:42:37;;;;;;;25.13;9.00;;;;;;;-145.82;100.00;61645.16;4963808;28;20049;-70
2022/01/10 10:45:06;;;;;;;19.98;8.23;;;;;;;-145.82;100.00;61645.16;4964405;28;20038;-70
2022/01/10 10:47:34;;;;;;;20.13;8.52;;;;;;;-145.82;100.00;61645.16;4965053;28;20046;-71
2022/01/10 10:49:59;;;;;;;22.65;8.35;;;;;;;-145.82;100.00;61645.16;4966384;28;20515;-70
2022/01/10 10:52:31;;;;;;;25.98;8.50;;;;;;;-145.82;100.00;61645.16;4964130;28;20127;-70
2022/01/10 10:55:02;;;;;;;31.98;8.85;;;;;;;-145.82;100.00;61645.16;4966896;28;20050;-72
2022/01/10 10:57:28;;;;;;;27.30;9.75;;;;;;;-145.82;100.00;61645.16;4965422;28;20033;-70
2022/01/10 10:59:54;;;;;;;36.97;10.88;;;;;;;-145.82;100.00;61645.16;4964917;28;20043;-72
2022/01/10 11:02:21;;;;;;;31.10;9.32;;;;;;;-145.82;100.00;61645.16;4963851;28;20066;-70
2022/01/10 11:04:47;;;;;;;35.25;10.32;;;;;;;-145.82;100.00;61645.16;4965966;28;20038;-71
2022/01/10 11:07:14;;;;;;;33.55;8.85;;;;;;;-145.82;100.00;61645.16;4963910;28;20042;-70